Time;durP1;ratioP1;P1;durP2;ratioP2;P2;SDS_P1;SDS_P2;PMS_P1;PMS_P2;Temp;Humidity;BMP_temperature;BMP_pressure;BME280_temperature;BME280_humidity;BME280_pressure;Samples;Min_cycle;Max_cycle;Signal;HPM_P1;HPM_P2
2023/09/03 00:01:01;;;;;;;5.10;3.67;;;;;;;;;;4898437;29;20235;-84
2023/09/03 00:03:29;;;;;;;4.85;2.83;;;;;;;;;;4897624;29;20242;-81
2023/09/03 00:05:57;;;;;;;3.40;3.10;;;;;;;;;;4907603;29;20274;-83
2023/09/03 00:08:26;;;;;;;4.25;3.20;;;;;;;;;;4902633;29;20659;-83
2023/09/03 00:10:55;;;;;;;3.53;3.28;;;;;;;;;;4897242;29;20208;-82
2023/09/03 00:13:24;;;;;;;4.00;3.63;;;;;;;;;;4900652;29;20232;-82
2023/09/03 00:15:51;;;;;;;3.47;3.17;;;;;;;;;;4898453;29;20225;-81
2023/09/03 00:18:21;;;;;;;4.72;3.72;;;;;;;;;;4897171;29;20206;-82
2023/09/03 00:20:57;;;;;;;3.28;3.08;;;;;;;;;;4899512;29;20678;-82
2023/09/03 00:23:24;;;;;;;7.45;3.40;;;;;;;;;;4898800;29;20696;-82
2023/09/03 00:25:52;;;;;;;6.35;3.90;;;;;;;;;;4897156;29;20727;-82
2023/09/03 00:28:22;;;;;;;4.05;3.45;;;;;;;;;;4900585;29;20246;-82
2023/09/03 00:31:02;;;;;;;3.42;3.22;;;;;;;;;;4896800;29;20326;-82
2023/09/03 00:33:31;;;;;;;3.17;2.97;;;;;;;;;;4898598;29;20278;-83
2023/09/03 00:36:00;;;;;;;3.67;3.38;;;;;;;;;;4899118;29;20203;-82
2023/09/03 00:38:28;;;;;;;3.38;3.15;;;;;;;;;;4897231;29;20213;-82
2023/09/03 00:40:55;;;;;;;4.25;3.85;;;;;;;;;;4897697;29;20233;-81
2023/09/03 00:43:23;;;;;;;3.78;3.47;;;;;;;;;;4897698;29;20310;-81
2023/09/03 00:45:51;;;;;;;15.88;10.48;;;;;;;;;;4897693;29;20239;-82
2023/09/03 00:48:23;;;;;;;7.93;6.85;;;;;;;;;;4894459;29;20626;-82
2023/09/03 00:50:53;;;;;;;11.88;8.15;;;;;;;;;;4877768;29;20236;-83
2023/09/03 00:53:23;;;;;;;10.68;7.65;;;;;;;;;;4884924;29;20217;-83
2023/09/03 00:55:53;;;;;;;4.47;3.95;;;;;;;;;;4897506;29;20211;-83
2023/09/03 00:58:22;;;;;;;5.47;4.47;;;;;;;;;;4897874;29;20648;-82
2023/09/03 01:00:49;;;;;;;4.43;3.83;;;;;;;;;;4896659;29;20208;-82
2023/09/03 01:03:17;;;;;;;4.45;3.50;;;;;;;;;;4896182;29;20231;-84
2023/09/03 01:05:46;;;;;;;6.78;5.45;;;;;;;;;;4897730;29;20240;-82
2023/09/03 01:08:15;;;;;;;5.20;4.32;;;;;;;;;;4896302;29;20323;-82
2023/09/03 01:10:48;;;;;;;4.13;3.78;;;;;;;;;;4895724;29;20217;-81
2023/09/03 01:13:19;;;;;;;4.47;3.88;;;;;;;;;;4897317;29;20204;-82
2023/09/03 01:15:48;;;;;;;4.55;4.10;;;;;;;;;;4897084;29;20683;-82
2023/09/03 01:18:16;;;;;;;4.20;3.90;;;;;;;;;;4896336;29;20219;-82
2023/09/03 01:20:46;;;;;;;4.15;3.63;;;;;;;;;;4896804;29;20270;-82
2023/09/03 01:23:30;;;;;;;3.53;3.20;;;;;;;;;;4896503;29;20679;-82
2023/09/03 01:26:07;;;;;;;4.05;3.35;;;;;;;;;;4896058;29;20220;-83
2023/09/03 01:28:38;;;;;;;4.80;3.33;;;;;;;;;;4896768;29;20240;-81
2023/09/03 01:31:08;;;;;;;3.53;3.22;;;;;;;;;;4899113;29;20327;-82
2023/09/03 01:33:38;;;;;;;5.75;3.83;;;;;;;;;;4895688;29;20206;-82
2023/09/03 01:36:09;;;;;;;4.60;4.20;;;;;;;;;;4898207;29;20201;-83
2023/09/03 01:38:36;;;;;;;5.63;3.67;;;;;;;;;;4898655;29;20269;-82
2023/09/03 01:41:03;;;;;;;4.07;3.78;;;;;;;;;;4895598;29;20288;-82
2023/09/03 01:43:30;;;;;;;4.60;4.05;;;;;;;;;;4895307;29;20206;-82
2023/09/03 01:46:02;;;;;;;3.80;3.50;;;;;;;;;;4877362;29;20200;-81
2023/09/03 01:48:32;;;;;;;4.82;4.28;;;;;;;;;;4895035;29;20241;-83
2023/09/03 01:51:04;;;;;;;4.00;3.70;;;;;;;;;;4895961;29;20198;-82
2023/09/03 01:53:37;;;;;;;3.53;3.22;;;;;;;;;;4896254;29;20226;-83
2023/09/03 01:56:05;;;;;;;4.00;3.60;;;;;;;;;;4893674;29;20206;-82
2023/09/03 01:58:36;;;;;;;3.63;3.33;;;;;;;;;;4893458;29;20628;-83
2023/09/03 02:01:09;;;;;;;4.18;3.83;;;;;;;;;;4896043;29;20225;-82
2023/09/03 02:03:37;;;;;;;3.92;3.55;;;;;;;;;;4896021;29;20746;-82
2023/09/03 02:06:07;;;;;;;3.50;3.20;;;;;;;;;;4894682;29;20207;-82
2023/09/03 02:08:34;;;;;;;3.92;3.63;;;;;;;;;;4894166;29;20235;-81
2023/09/03 02:11:02;;;;;;;3.80;3.38;;;;;;;;;;4894464;29;20566;-83
2023/09/03 02:13:30;;;;;;;3.50;3.20;;;;;;;;;;4893989;29;20259;-84
2023/09/03 02:15:59;;;;;;;4.43;3.95;;;;;;;;;;4894879;29;20208;-83
2023/09/03 02:18:30;;;;;;;3.35;3.15;;;;;;;;;;4893811;29;20663;-80
2023/09/03 02:20:58;;;;;;;5.60;3.63;;;;;;;;;;4894627;29;20196;-82
2023/09/03 02:23:25;;;;;;;7.40;3.95;;;;;;;;;;4896237;29;20215;-82
2023/09/03 02:26:00;;;;;;;3.88;3.58;;;;;;;;;;4897060;29;20240;-82
2023/09/03 02:28:27;;;;;;;5.93;3.53;;;;;;;;;;4895021;29;20213;-83
2023/09/03 02:30:55;;;;;;;6.82;3.20;;;;;;;;;;4893988;29;20245;-82
2023/09/03 02:33:23;;;;;;;4.25;3.65;;;;;;;;;;4894894;29;20674;-82
2023/09/03 02:35:51;;;;;;;7.00;3.95;;;;;;;;;;4893445;29;20680;-83
2023/09/03 02:38:19;;;;;;;3.70;3.40;;;;;;;;;;4894159;29;20236;-82
2023/09/03 02:40:46;;;;;;;5.35;3.78;;;;;;;;;;4893945;29;20211;-82
2023/09/03 02:43:14;;;;;;;5.28;3.95;;;;;;;;;;4895508;29;20236;-80
2023/09/03 02:45:41;;;;;;;4.40;3.47;;;;;;;;;;4894023;29;20211;-81
2023/09/03 02:48:09;;;;;;;4.18;3.80;;;;;;;;;;4898306;29;20230;-82
2023/09/03 02:50:36;;;;;;;5.65;4.22;;;;;;;;;;4897606;29;20230;-81
2023/09/03 02:53:07;;;;;;;4.30;4.00;;;;;;;;;;4898200;29;20218;-82
2023/09/03 02:55:34;;;;;;;4.72;3.95;;;;;;;;;;4894594;29;20232;-82
2023/09/03 02:58:01;;;;;;;4.53;3.17;;;;;;;;;;4894386;29;20209;-82
2023/09/03 03:00:30;;;;;;;4.05;3.38;;;;;;;;;;4893646;29;20286;-83
2023/09/03 03:02:58;;;;;;;5.07;3.80;;;;;;;;;;4893475;29;20245;-83
2023/09/03 03:05:26;;;;;;;4.13;3.83;;;;;;;;;;4893803;29;20265;-82
2023/09/03 03:07:55;;;;;;;4.38;3.97;;;;;;;;;;4893361;29;20214;-82
2023/09/03 03:10:23;;;;;;;3.75;3.47;;;;;;;;;;4893645;29;20223;-82
2023/09/03 03:12:50;;;;;;;3.80;3.50;;;;;;;;;;4893722;29;20218;-83
2023/09/03 03:15:18;;;;;;;3.95;3.55;;;;;;;;;;4893563;29;20586;-82
2023/09/03 03:17:46;;;;;;;3.88;3.47;;;;;;;;;;4893553;29;20255;-82
2023/09/03 03:20:13;;;;;;;4.35;3.85;;;;;;;;;;4893899;29;20199;-82
2023/09/03 03:22:40;;;;;;;4.07;3.78;;;;;;;;;;4892967;29;20207;-82
2023/09/03 03:25:07;;;;;;;3.28;2.97;;;;;;;;;;4896324;29;20211;-82
2023/09/03 03:27:37;;;;;;;4.17;3.57;;;;;;;;;;4885286;29;20217;-83
2023/09/03 03:30:04;;;;;;;4.10;3.72;;;;;;;;;;4877574;29;20260;-82
2023/09/03 03:32:31;;;;;;;3.50;3.20;;;;;;;;;;4876807;29;20246;-82
2023/09/03 03:34:58;;;;;;;4.77;4.30;;;;;;;;;;4878752;29;20321;-82
2023/09/03 03:37:26;;;;;;;4.78;3.78;;;;;;;;;;4877457;29;20253;-82
2023/09/03 03:39:54;;;;;;;3.88;3.45;;;;;;;;;;4877689;29;20688;-81
2023/09/03 03:42:22;;;;;;;3.70;3.40;;;;;;;;;;4877946;29;20214;-81
2023/09/03 03:44:51;;;;;;;5.18;4.38;;;;;;;;;;4877588;29;20212;-81
2023/09/03 03:47:18;;;;;;;4.45;4.05;;;;;;;;;;4877351;29;20218;-83
2023/09/03 03:49:47;;;;;;;3.92;3.63;;;;;;;;;;4878292;29;20333;-82
2023/09/03 03:52:15;;;;;;;5.13;3.50;;;;;;;;;;4877072;29;20256;-82
2023/09/03 03:54:43;;;;;;;6.28;3.50;;;;;;;;;;4878267;29;20220;-82
2023/09/03 03:57:12;;;;;;;8.05;4.43;;;;;;;;;;4877607;29;20236;-83
2023/09/03 03:59:41;;;;;;;3.73;3.43;;;;;;;;;;4877537;29;20275;-81
2023/09/03 04:02:09;;;;;;;4.32;3.92;;;;;;;;;;4877260;29;20206;-82
2023/09/03 04:04:36;;;;;;;5.07;3.47;;;;;;;;;;4878004;29;20722;-82
2023/09/03 04:07:04;;;;;;;3.83;3.45;;;;;;;;;;4877316;29;21075;-83
2023/09/03 04:09:30;;;;;;;4.35;4.00;;;;;;;;;;4877464;29;20242;-82
2023/09/03 04:11:58;;;;;;;4.03;3.72;;;;;;;;;;4880438;29;20651;-82
2023/09/03 04:14:25;;;;;;;3.25;2.95;;;;;;;;;;4896176;29;20213;-82
2023/09/03 04:16:55;;;;;;;4.53;3.83;;;;;;;;;;4895904;29;20677;-81
2023/09/03 04:19:23;;;;;;;4.75;4.28;;;;;;;;;;4897775;29;20201;-82
2023/09/03 04:21:50;;;;;;;4.03;3.72;;;;;;;;;;4895667;29;20212;-82
2023/09/03 04:24:17;;;;;;;5.25;4.18;;;;;;;;;;4896691;29;20220;-82
2023/09/03 04:26:45;;;;;;;4.40;3.35;;;;;;;;;;4895721;29;20202;-83
2023/09/03 04:29:12;;;;;;;4.75;3.75;;;;;;;;;;4895620;29;20267;-82
2023/09/03 04:31:40;;;;;;;3.75;3.40;;;;;;;;;;4895738;29;20682;-84
2023/09/03 04:34:07;;;;;;;4.20;3.80;;;;;;;;;;4896634;29;20216;-82
2023/09/03 04:36:37;;;;;;;4.30;3.90;;;;;;;;;;4895336;29;20205;-83
2023/09/03 04:39:05;;;;;;;3.65;3.38;;;;;;;;;;4894695;29;20628;-83
2023/09/03 04:41:33;;;;;;;3.97;3.78;;;;;;;;;;4894080;29;20289;-82
2023/09/03 04:44:10;;;;;;;5.03;3.97;;;;;;;;;;4894127;29;20654;-82
2023/09/03 04:46:38;;;;;;;4.63;4.22;;;;;;;;;;4895642;29;20598;-84
2023/09/03 04:49:05;;;;;;;4.25;4.03;;;;;;;;;;4895576;29;20292;-83
2023/09/03 04:51:34;;;;;;;4.78;4.47;;;;;;;;;;4894619;29;20209;-83
2023/09/03 04:54:04;;;;;;;4.45;4.15;;;;;;;;;;4895259;29;20209;-82
2023/09/03 04:56:32;;;;;;;4.72;4.38;;;;;;;;;;4895079;29;20215;-83
2023/09/03 04:58:59;;;;;;;5.00;4.60;;;;;;;;;;4895639;29;20212;-82
2023/09/03 05:01:26;;;;;;;5.00;4.60;;;;;;;;;;4895373;29;20281;-84
2023/09/03 05:03:54;;;;;;;4.28;4.00;;;;;;;;;;4895214;29;20205;-84
2023/09/03 05:06:22;;;;;;;4.97;4.57;;;;;;;;;;4894920;29;20304;-83
2023/09/03 05:08:50;;;;;;;5.28;4.85;;;;;;;;;;4894754;29;20577;-83
2023/09/03 05:11:21;;;;;;;5.47;5.07;;;;;;;;;;4896465;29;20216;-81
2023/09/03 05:13:49;;;;;;;5.95;5.03;;;;;;;;;;4894692;29;20701;-82
2023/09/03 05:16:17;;;;;;;5.60;5.10;;;;;;;;;;4894528;29;20197;-83
2023/09/03 05:18:45;;;;;;;5.32;4.68;;;;;;;;;;4883061;29;20664;-83
2023/09/03 05:21:13;;;;;;;5.25;4.85;;;;;;;;;;4864926;29;20241;-82
2023/09/03 05:23:41;;;;;;;5.43;5.00;;;;;;;;;;4876189;29;20228;-83
2023/09/03 05:26:10;;;;;;;5.25;4.75;;;;;;;;;;4877531;29;20655;-83
2023/09/03 05:28:38;;;;;;;4.13;3.83;;;;;;;;;;4876140;29;20205;-83
2023/09/03 05:31:05;;;;;;;4.80;4.40;;;;;;;;;;4878395;29;20685;-83
2023/09/03 05:33:33;;;;;;;4.68;4.38;;;;;;;;;;4885089;29;20257;-82
2023/09/03 05:36:01;;;;;;;4.72;4.18;;;;;;;;;;4875516;29;20213;-83
2023/09/03 05:38:30;;;;;;;4.35;4.05;;;;;;;;;;4876301;29;20211;-83
2023/09/03 05:40:59;;;;;;;5.10;4.70;;;;;;;;;;4876686;29;20240;-83
2023/09/03 05:43:26;;;;;;;4.35;4.05;;;;;;;;;;4876081;29;20780;-82
2023/09/03 05:45:56;;;;;;;5.22;4.82;;;;;;;;;;4874455;29;20699;-81
2023/09/03 05:48:23;;;;;;;4.88;4.47;;;;;;;;;;4875933;29;20289;-82
2023/09/03 05:50:57;;;;;;;4.65;4.20;;;;;;;;;;4876443;29;20697;-82
2023/09/03 05:53:25;;;;;;;4.72;4.43;;;;;;;;;;4876050;29;20196;-82
2023/09/03 05:55:52;;;;;;;5.70;5.10;;;;;;;;;;4875325;29;20751;-81
2023/09/03 05:58:19;;;;;;;4.78;4.38;;;;;;;;;;4875133;29;20228;-82
2023/09/03 06:00:47;;;;;;;5.47;5.07;;;;;;;;;;4875071;29;20201;-82
2023/09/03 06:03:15;;;;;;;4.60;4.22;;;;;;;;;;4883315;29;20267;-83
2023/09/03 06:05:43;;;;;;;4.32;4.03;;;;;;;;;;4893852;29;20214;-82
2023/09/03 06:08:10;;;;;;;4.28;3.97;;;;;;;;;;4894186;29;20204;-82
2023/09/03 06:10:38;;;;;;;4.45;4.20;;;;;;;;;;4893730;29;20252;-82
2023/09/03 06:13:04;;;;;;;4.18;3.88;;;;;;;;;;4893219;29;20682;-82
2023/09/03 06:15:32;;;;;;;5.32;4.82;;;;;;;;;;4893511;29;20236;-82
2023/09/03 06:18:00;;;;;;;3.85;3.55;;;;;;;;;;4895824;29;20208;-84
2023/09/03 06:20:29;;;;;;;4.03;3.78;;;;;;;;;;4905643;29;20212;-82
2023/09/03 06:22:57;;;;;;;4.35;3.95;;;;;;;;;;4903891;29;20264;-84
2023/09/03 06:25:24;;;;;;;3.70;3.45;;;;;;;;;;4883823;29;20220;-83
2023/09/03 06:27:52;;;;;;;4.30;4.03;;;;;;;;;;4874876;29;20710;-83
2023/09/03 06:30:20;;;;;;;4.40;4.03;;;;;;;;;;4874993;29;20300;-83
2023/09/03 06:32:47;;;;;;;4.47;4.18;;;;;;;;;;4865460;29;20209;-83
2023/09/03 06:35:16;;;;;;;4.05;3.85;;;;;;;;;;4867155;29;20224;-82
2023/09/03 06:37:45;;;;;;;5.05;4.65;;;;;;;;;;4868373;29;20212;-83
2023/09/03 06:40:14;;;;;;;4.25;3.95;;;;;;;;;;4857008;29;20734;-82
2023/09/03 06:45:30;;;;;;;4.82;4.32;;;;;;;;;;4856429;29;20680;-82
2023/09/03 06:48:00;;;;;;;4.40;4.10;;;;;;;;;;4867953;29;20212;-83
2023/09/03 06:50:28;;;;;;;4.32;4.10;;;;;;;;;;4852619;29;20232;-83
2023/09/03 06:52:56;;;;;;;4.38;4.10;;;;;;;;;;4863287;29;20205;-83
2023/09/03 06:55:23;;;;;;;4.22;4.03;;;;;;;;;;4863882;29;20767;-83
2023/09/03 06:57:50;;;;;;;4.10;3.90;;;;;;;;;;4850700;29;20224;-82
2023/09/03 07:00:18;;;;;;;4.20;3.90;;;;;;;;;;4870338;29;20225;-83
2023/09/03 07:02:46;;;;;;;4.50;4.20;;;;;;;;;;4858489;29;20218;-83
2023/09/03 07:05:19;;;;;;;4.00;3.80;;;;;;;;;;4867516;29;20213;-85
2023/09/03 07:07:54;;;;;;;4.65;4.10;;;;;;;;;;4874066;29;20556;-83
2023/09/03 07:10:28;;;;;;;4.85;4.40;;;;;;;;;;4872245;29;20666;-84
2023/09/03 07:12:56;;;;;;;4.95;4.35;;;;;;;;;;4867124;29;20712;-83
2023/09/03 07:15:24;;;;;;;3.60;3.40;;;;;;;;;;4871729;29;20270;-83
2023/09/03 07:17:52;;;;;;;4.22;3.92;;;;;;;;;;4875100;29;20651;-81
2023/09/03 07:20:20;;;;;;;4.57;4.18;;;;;;;;;;4878553;29;20212;-82
2023/09/03 07:22:48;;;;;;;4.32;4.13;;;;;;;;;;4879033;29;20571;-82
2023/09/03 07:25:16;;;;;;;4.30;4.00;;;;;;;;;;4868962;29;20209;-83
2023/09/03 07:27:49;;;;;;;4.20;3.78;;;;;;;;;;4872270;29;20210;-83
2023/09/03 07:30:17;;;;;;;5.55;3.85;;;;;;;;;;4870445;29;20286;-82
2023/09/03 07:32:44;;;;;;;3.90;3.70;;;;;;;;;;4877622;29;20243;-83
2023/09/03 07:35:12;;;;;;;5.05;4.53;;;;;;;;;;4877433;29;20358;-83
2023/09/03 07:37:42;;;;;;;10.77;4.85;;;;;;;;;;4877880;29;20288;-82
2023/09/03 07:40:16;;;;;;;7.03;4.72;;;;;;;;;;4878226;29;20295;-83
2023/09/03 07:42:45;;;;;;;4.45;4.22;;;;;;;;;;4877883;29;20586;-84
2023/09/03 07:45:18;;;;;;;4.50;4.13;;;;;;;;;;4878215;29;20212;-82
2023/09/03 07:47:49;;;;;;;4.72;4.32;;;;;;;;;;4877615;29;20683;-82
2023/09/03 07:50:17;;;;;;;5.28;4.88;;;;;;;;;;4877799;29;20237;-82
2023/09/03 07:52:47;;;;;;;7.57;4.97;;;;;;;;;;4878248;29;20212;-83
2023/09/03 07:55:14;;;;;;;4.30;4.00;;;;;;;;;;4877888;29;20249;-83
2023/09/03 07:57:42;;;;;;;4.82;4.40;;;;;;;;;;4877463;29;20215;-84
2023/09/03 08:00:13;;;;;;;4.30;4.00;;;;;;;;;;4876751;29;20292;-83
2023/09/03 08:02:41;;;;;;;4.80;4.45;;;;;;;;;;4877840;29;20301;-83
2023/09/03 08:05:11;;;;;;;4.60;4.30;;;;;;;;;;4874469;29;20233;-81
2023/09/03 08:07:39;;;;;;;4.65;4.22;;;;;;;;;;4876741;29;20221;-82
2023/09/03 08:10:08;;;;;;;4.88;3.85;;;;;;;;;;4875370;29;20331;-82
2023/09/03 08:12:41;;;;;;;4.75;4.45;;;;;;;;;;4876298;29;20683;-81
2023/09/03 08:15:10;;;;;;;4.57;4.20;;;;;;;;;;4875776;29;20317;-82
2023/09/03 08:17:41;;;;;;;4.25;3.95;;;;;;;;;;4876219;29;20369;-82
2023/09/03 08:20:09;;;;;;;4.40;4.00;;;;;;;;;;4876445;29;20281;-82
2023/09/03 08:22:38;;;;;;;6.38;4.32;;;;;;;;;;4890317;29;20264;-83
2023/09/03 08:25:08;;;;;;;4.20;3.90;;;;;;;;;;4895779;29;20726;-82
2023/09/03 08:27:35;;;;;;;3.55;3.35;;;;;;;;;;4894445;29;20232;-82
2023/09/03 08:30:05;;;;;;;3.85;3.65;;;;;;;;;;4881086;29;20698;-84
2023/09/03 08:32:36;;;;;;;3.72;3.53;;;;;;;;;;4894749;29;20244;-83
2023/09/03 08:35:06;;;;;;;4.07;3.72;;;;;;;;;;4894255;29;20312;-83
2023/09/03 08:37:34;;;;;;;3.72;3.53;;;;;;;;;;4889623;29;20265;-84
2023/09/03 08:40:02;;;;;;;3.88;3.63;;;;;;;;;;4858731;29;20228;-84
2023/09/03 08:42:32;;;;;;;3.75;3.55;;;;;;;;;;4864654;29;20690;-85
2023/09/03 08:45:06;;;;;;;8.98;4.38;;;;;;;;;;4876929;29;20230;-83
2023/09/03 08:47:38;;;;;;;4.35;3.70;;;;;;;;;;4876424;29;20236;-84
2023/09/03 08:50:14;;;;;;;3.60;3.40;;;;;;;;;;4876228;29;20272;-84
2023/09/03 08:52:49;;;;;;;3.42;3.30;;;;;;;;;;4876705;29;20520;-84
2023/09/03 08:55:17;;;;;;;3.97;3.70;;;;;;;;;;4872137;29;20225;-83
2023/09/03 08:57:44;;;;;;;6.13;4.20;;;;;;;;;;4875295;29;20221;-84
2023/09/03 09:00:16;;;;;;;4.15;3.85;;;;;;;;;;4876775;29;20316;-84
2023/09/03 09:02:45;;;;;;;3.70;3.50;;;;;;;;;;4875412;29;20237;-85
2023/09/03 09:05:17;;;;;;;2.85;2.65;;;;;;;;;;4876213;29;20599;-84
2023/09/03 09:07:48;;;;;;;3.88;3.28;;;;;;;;;;4876031;29;20331;-85
2023/09/03 09:10:16;;;;;;;7.75;3.83;;;;;;;;;;4886855;29;20242;-84
2023/09/03 09:12:46;;;;;;;3.65;3.35;;;;;;;;;;4894748;29;20239;-83
2023/09/03 09:15:15;;;;;;;3.50;3.30;;;;;;;;;;4896115;29;20236;-84
2023/09/03 09:17:48;;;;;;;3.30;3.15;;;;;;;;;;4895744;29;20225;-85
2023/09/03 09:20:16;;;;;;;3.38;3.28;;;;;;;;;;4895298;29;20324;-83
2023/09/03 09:22:45;;;;;;;2.80;2.70;;;;;;;;;;4887759;29;20233;-85
2023/09/03 09:25:21;;;;;;;3.78;3.58;;;;;;;;;;4875804;29;20225;-83
2023/09/03 09:27:49;;;;;;;3.25;3.10;;;;;;;;;;4876847;29;20705;-84
2023/09/03 09:30:19;;;;;;;3.55;3.35;;;;;;;;;;4877252;29;20733;-85
2023/09/03 09:32:50;;;;;;;4.10;3.80;;;;;;;;;;4875686;29;20714;-85
2023/09/03 09:35:30;;;;;;;3.08;2.78;;;;;;;;;;4878239;29;20229;-86
2023/09/03 09:38:06;;;;;;;2.88;2.78;;;;;;;;;;4876987;29;20355;-84
2023/09/03 09:40:34;;;;;;;3.30;3.10;;;;;;;;;;4882402;29;20304;-84
2023/09/03 09:43:04;;;;;;;3.95;3.60;;;;;;;;;;4871210;29;20230;-85
2023/09/03 09:45:33;;;;;;;3.17;3.08;;;;;;;;;;4876296;29;20229;-85
2023/09/03 09:48:08;;;;;;;3.72;3.53;;;;;;;;;;4876695;29;20243;-84
2023/09/03 09:50:41;;;;;;;3.00;2.80;;;;;;;;;;4875972;29;20248;-85
2023/09/03 09:53:26;;;;;;;3.72;3.53;;;;;;;;;;4881107;29;20273;-84
2023/09/03 09:56:13;;;;;;;3.55;3.35;;;;;;;;;;4895003;29;20243;-85
2023/09/03 09:58:49;;;;;;;3.20;3.00;;;;;;;;;;4892947;29;20239;-86
2023/09/03 10:01:19;;;;;;;3.08;2.88;;;;;;;;;;4897066;29;20232;-85
2023/09/03 10:04:00;;;;;;;3.33;3.13;;;;;;;;;;4898363;29;20714;-84
2023/09/03 10:06:31;;;;;;;6.15;3.17;;;;;;;;;;4896578;29;20240;-85
2023/09/03 10:09:04;;;;;;;3.35;3.13;;;;;;;;;;4893781;29;20617;-83
2023/09/03 10:11:33;;;;;;;3.67;3.45;;;;;;;;;;4893816;29;20244;-84
2023/09/03 10:14:06;;;;;;;3.03;2.92;;;;;;;;;;4893471;29;20233;-85
2023/09/03 10:16:54;;;;;;;2.75;2.65;;;;;;;;;;4894436;29;20957;-84
2023/09/03 10:19:25;;;;;;;2.95;2.80;;;;;;;;;;4894635;29;20236;-86
2023/09/03 10:22:02;;;;;;;4.22;3.35;;;;;;;;;;4894303;29;20750;-85
2023/09/03 10:24:33;;;;;;;3.88;3.67;;;;;;;;;;4856830;29;20237;-84
2023/09/03 10:27:03;;;;;;;3.17;2.97;;;;;;;;;;4857364;29;20230;-84
2023/09/03 10:29:32;;;;;;;3.28;3.08;;;;;;;;;;4856023;29;20230;-84
2023/09/03 10:32:00;;;;;;;3.42;3.33;;;;;;;;;;4856350;29;20294;-84
2023/09/03 10:34:30;;;;;;;2.85;2.75;;;;;;;;;;4856063;29;20341;-85
2023/09/03 10:37:05;;;;;;;2.72;2.60;;;;;;;;;;4857359;29;20325;-84
2023/09/03 10:39:37;;;;;;;3.78;3.47;;;;;;;;;;4854435;29;20269;-85
2023/09/03 10:42:23;;;;;;;3.35;3.15;;;;;;;;;;4856009;29;20249;-85
2023/09/03 10:44:54;;;;;;;2.80;2.70;;;;;;;;;;4859216;29;20637;-85
2023/09/03 10:47:22;;;;;;;3.28;3.08;;;;;;;;;;4870486;29;20237;-85
2023/09/03 10:49:53;;;;;;;6.22;2.70;;;;;;;;;;4873024;29;20237;-83
2023/09/03 10:52:41;;;;;;;3.13;2.92;;;;;;;;;;4874950;29;20245;-83
2023/09/03 10:55:20;;;;;;;3.40;3.17;;;;;;;;;;4874020;29;20541;-84
2023/09/03 10:57:49;;;;;;;3.13;2.92;;;;;;;;;;4873614;29;20275;-84
2023/09/03 11:00:23;;;;;;;3.25;3.05;;;;;;;;;;4873082;29;20391;-84
2023/09/03 11:02:57;;;;;;;3.97;2.67;;;;;;;;;;4874055;29;20667;-85
2023/09/03 11:05:27;;;;;;;3.38;3.08;;;;;;;;;;4875253;29;20233;-84
2023/09/03 11:08:10;;;;;;;2.60;2.45;;;;;;;;;;4878162;29;20279;-85
2023/09/03 11:10:47;;;;;;;2.97;2.78;;;;;;;;;;4872606;29;20590;-84
2023/09/03 11:13:18;;;;;;;2.90;2.80;;;;;;;;;;4875863;29;20232;-84
2023/09/03 11:15:52;;;;;;;2.85;2.65;;;;;;;;;;4874221;29;20241;-85
2023/09/03 11:18:22;;;;;;;2.67;2.58;;;;;;;;;;4875188;29;20225;-83
2023/09/03 11:20:51;;;;;;;2.38;2.28;;;;;;;;;;4874506;29;20248;-83
2023/09/03 11:23:26;;;;;;;3.03;2.75;;;;;;;;;;4876769;29;20225;-83
2023/09/03 11:26:00;;;;;;;2.53;2.42;;;;;;;;;;4875714;29;20228;-83
2023/09/03 11:28:28;;;;;;;2.78;2.60;;;;;;;;;;4876994;29;20254;-84
2023/09/03 11:31:02;;;;;;;2.85;2.70;;;;;;;;;;4876284;29;20251;-83
2023/09/03 11:33:30;;;;;;;3.13;2.78;;;;;;;;;;4894909;29;20244;-83
2023/09/03 11:36:02;;;;;;;3.03;2.83;;;;;;;;;;4893376;29;20237;-84
2023/09/03 11:38:32;;;;;;;3.03;2.83;;;;;;;;;;4893368;29;20229;-84
2023/09/03 11:41:03;;;;;;;2.95;2.85;;;;;;;;;;4888960;29;20228;-85
2023/09/03 11:43:40;;;;;;;3.15;2.95;;;;;;;;;;4884010;29;20399;-85
2023/09/03 11:46:15;;;;;;;3.13;2.90;;;;;;;;;;4877796;29;20241;-84
2023/09/03 11:48:51;;;;;;;3.28;3.03;;;;;;;;;;4886110;29;20235;-84
2023/09/03 11:51:26;;;;;;;3.10;2.90;;;;;;;;;;4879947;29;20232;-83
2023/09/03 11:53:54;;;;;;;3.00;2.80;;;;;;;;;;4882903;29;20229;-85
2023/09/03 11:56:25;;;;;;;2.50;2.40;;;;;;;;;;4874447;29;20245;-85
2023/09/03 11:59:01;;;;;;;3.63;3.05;;;;;;;;;;4877505;29;20709;-85
2023/09/03 12:01:30;;;;;;;3.15;2.63;;;;;;;;;;4878318;29;20267;-84
2023/09/03 12:04:01;;;;;;;3.45;3.22;;;;;;;;;;4886840;29;20237;-85
2023/09/03 12:06:34;;;;;;;2.88;2.67;;;;;;;;;;4885484;29;20226;-84
2023/09/03 12:09:09;;;;;;;2.95;2.85;;;;;;;;;;4888478;29;20314;-84
2023/09/03 12:11:46;;;;;;;3.00;2.67;;;;;;;;;;4882694;29;20240;-85
2023/09/03 12:14:31;;;;;;;2.65;2.45;;;;;;;;;;4885004;29;20328;-84
2023/09/03 12:17:03;;;;;;;2.58;2.47;;;;;;;;;;4879152;29;20786;-85
2023/09/03 12:22:31;;;;;;;2.25;2.15;;;;;;;;;;4872929;29;20305;-85
2023/09/03 12:25:11;;;;;;;2.65;2.55;;;;;;;;;;4876805;29;20233;-84
2023/09/03 12:27:52;;;;;;;3.28;3.08;;;;;;;;;;4875807;29;20229;-85
2023/09/03 12:30:22;;;;;;;3.17;2.75;;;;;;;;;;4877154;29;20232;-85
2023/09/03 12:33:23;;;;;;;2.75;2.55;;;;;;;;;;4876450;29;20321;-84
2023/09/03 12:36:13;;;;;;;2.92;2.63;;;;;;;;;;4818767;29;20234;-85
2023/09/03 12:38:58;;;;;;;3.90;2.78;;;;;;;;;;4818643;29;20234;-85
2023/09/03 12:41:31;;;;;;;2.90;2.70;;;;;;;;;;4816587;29;20262;-85
2023/09/03 12:44:07;;;;;;;2.30;2.20;;;;;;;;;;4819572;29;20243;-85
2023/09/03 12:46:35;;;;;;;2.70;2.60;;;;;;;;;;4818940;29;20235;-85
2023/09/03 12:49:03;;;;;;;2.60;2.50;;;;;;;;;;4819543;29;20223;-85
2023/09/03 12:51:51;;;;;;;3.10;2.90;;;;;;;;;;4818282;29;20250;-84
2023/09/03 12:54:19;;;;;;;2.58;2.47;;;;;;;;;;4855999;29;20268;-85
2023/09/03 12:56:47;;;;;;;5.68;2.42;;;;;;;;;;4875613;29;20707;-85
2023/09/03 12:59:22;;;;;;;2.25;2.15;;;;;;;;;;4876419;29;20233;-84
2023/09/03 13:01:53;;;;;;;2.33;2.22;;;;;;;;;;4872033;29;20257;-84
2023/09/03 13:04:26;;;;;;;2.40;2.30;;;;;;;;;;4877706;29;20260;-85
2023/09/03 13:06:55;;;;;;;2.65;2.53;;;;;;;;;;4876515;29;20233;-85
2023/09/03 13:09:27;;;;;;;2.20;2.10;;;;;;;;;;4876317;29;20225;-84
2023/09/03 13:12:03;;;;;;;2.67;2.58;;;;;;;;;;4879986;29;20236;-86
2023/09/03 13:14:42;;;;;;;2.65;2.55;;;;;;;;;;4896970;29;20232;-85
2023/09/03 13:17:13;;;;;;;3.05;2.85;;;;;;;;;;4892676;29;20225;-83
2023/09/03 13:19:58;;;;;;;3.00;2.80;;;;;;;;;;4895454;29;20225;-85
2023/09/03 13:22:43;;;;;;;4.10;2.67;;;;;;;;;;4870967;29;20693;-85
2023/09/03 13:25:24;;;;;;;;;;;;;;;;;;;;;
2023/09/03 13:27:55;;;;;;;2.90;2.70;;;;;;;;;;4871829;29;20264;-83
2023/09/03 13:30:29;;;;;;;2.35;2.25;;;;;;;;;;4878998;29;20483;-84
2023/09/03 13:32:59;;;;;;;2.45;2.35;;;;;;;;;;4879703;29;20238;-84
2023/09/03 13:35:45;;;;;;;2.70;2.50;;;;;;;;;;4873948;29;20849;-84
2023/09/03 13:38:20;;;;;;;2.95;2.83;;;;;;;;;;4873518;29;20237;-84
2023/09/03 13:41:02;;;;;;;2.60;2.50;;;;;;;;;;4875623;29;20225;-84
2023/09/03 13:43:54;;;;;;;2.50;2.35;;;;;;;;;;4875829;29;20320;-84
2023/09/03 13:49:37;;;;;;;2.42;2.30;;;;;;;;;;4878722;29;20238;-84
2023/09/03 13:52:26;;;;;;;2.30;2.20;;;;;;;;;;4865180;29;20768;-85
2023/09/03 13:55:01;;;;;;;2.55;2.45;;;;;;;;;;4874055;29;20599;-84
2023/09/03 13:58:15;;;;;;;3.55;2.20;;;;;;;;;;4874730;29;20617;-86
2023/09/03 14:03:48;;;;;;;3.28;2.78;;;;;;;;;;4860782;29;20245;-85
2023/09/03 14:06:38;;;;;;;4.78;2.30;;;;;;;;;;4875333;29;20245;-85
2023/09/03 14:09:11;;;;;;;2.50;2.30;;;;;;;;;;4871102;29;20237;-85
2023/09/03 14:11:57;;;;;;;;;;;;;;;;;;;;;
2023/09/03 14:14:27;;;;;;;2.50;2.40;;;;;;;;;;4871929;29;20593;-86
2023/09/03 14:17:11;;;;;;;2.58;2.38;;;;;;;;;;4875624;29;20229;-87
2023/09/03 14:19:47;;;;;;;2.90;2.72;;;;;;;;;;4874369;29;20710;-86
2023/09/03 14:22:19;;;;;;;3.17;2.70;;;;;;;;;;4873927;29;20229;-84
2023/09/03 14:24:49;;;;;;;2.63;2.42;;;;;;;;;;4872205;29;20244;-85
2023/09/03 14:27:17;;;;;;;2.53;2.40;;;;;;;;;;4875814;29;20605;-85
2023/09/03 14:29:50;;;;;;;2.50;2.30;;;;;;;;;;4873729;29;20225;-84
2023/09/03 14:32:18;;;;;;;2.97;2.72;;;;;;;;;;4891574;29;20606;-84
2023/09/03 14:34:47;;;;;;;2.30;2.20;;;;;;;;;;4894853;29;20636;-83
2023/09/03 14:37:18;;;;;;;2.20;2.10;;;;;;;;;;4893954;29;20789;-83
2023/09/03 14:39:48;;;;;;;3.95;2.60;;;;;;;;;;4897269;29;20312;-84
2023/09/03 14:42:14;;;;;;;2.58;2.47;;;;;;;;;;4901402;29;20364;-85
2023/09/03 14:44:47;;;;;;;2.70;2.60;;;;;;;;;;4893373;29;20271;-85
2023/09/03 14:47:21;;;;;;;3.10;2.90;;;;;;;;;;4894363;29;20253;-85
2023/09/03 14:49:49;;;;;;;2.83;2.63;;;;;;;;;;4893915;29;20290;-84
2023/09/03 14:52:23;;;;;;;2.50;2.30;;;;;;;;;;4892197;29;20335;-84
2023/09/03 14:54:51;;;;;;;2.80;2.60;;;;;;;;;;4892195;29;20228;-85
2023/09/03 14:57:21;;;;;;;2.85;2.63;;;;;;;;;;4892784;29;20552;-84
2023/09/03 14:59:49;;;;;;;2.65;2.45;;;;;;;;;;4889577;29;20722;-84
2023/09/03 15:02:17;;;;;;;2.35;2.20;;;;;;;;;;4893392;29;20224;-84
2023/09/03 15:04:46;;;;;;;2.80;2.65;;;;;;;;;;4883565;29;20256;-84
2023/09/03 15:07:15;;;;;;;2.65;2.45;;;;;;;;;;4872330;29;20233;-84
2023/09/03 15:09:43;;;;;;;3.33;2.38;;;;;;;;;;4873681;29;20766;-85
2023/09/03 15:12:12;;;;;;;2.72;2.55;;;;;;;;;;4872821;29;20293;-84
2023/09/03 15:14:40;;;;;;;3.00;2.60;;;;;;;;;;4874084;29;20667;-85
2023/09/03 15:17:08;;;;;;;2.65;2.55;;;;;;;;;;4872686;29;20237;-84
2023/09/03 15:19:36;;;;;;;2.55;2.45;;;;;;;;;;4878428;29;20233;-85